»·PEaware :: N500GA KJFK-KEWR

N500GA :: KJFK-KEWR

FLIGHT INFORMATION

Flight Status: Arrived
Operator: Privately registered:
United States
More flights under this callsign
Pilot: Anonymous 328 (328)
Aircraft: Unknown
(G500)
More flights by this aircraft type
Origin: KJFK Kennedy Intl
United States
Destination: KEWR Newark Intl
United States
More flights between these airports :: More routes between these airports
Route: +SKORR3 RNGRR TICKL PTW METRO PHLBO3
File this flight plan on PilotEdge
Remarks:
Altitude:
(Current/Filed)
6,000ft
Speed:
(Current/Filed)
0kts
Departed: 05-Jan-17 07:53 AM
Arrived: 05-Jan-17 08:29 AM
Distance/Time
Traveled:
18nm/0:36
Distance/Time
To Go:
Arrived

Flight Plot

Page will automatically refresh every two minutes.


Map Options




Map Legend


Flown Route
Filed Route
Departure Airport
Arrival Airport
Navaid (VOR, NDB)
Fix

Horizontal Profiles

Position Reports

Time Latitude Longitude Heading Altitude Ground
Speed
05-Jan-17 07:38 40.631092 -73.775162 210 20ft 0kts
05-Jan-17 07:39 40.631092 -73.775162 210 20ft 0kts
05-Jan-17 07:40 40.631092 -73.775162 210 20ft 0kts
05-Jan-17 07:41 40.631092 -73.775162 210 20ft 0kts
05-Jan-17 07:42 40.631092 -73.775162 210 20ft 0kts
05-Jan-17 07:43 40.631092 -73.775162 210 20ft 0kts
05-Jan-17 07:44 40.631092 -73.775162 210 20ft 0kts
05-Jan-17 07:45 40.631092 -73.775162 210 20ft 0kts
05-Jan-17 07:46 40.631092 -73.775162 210 20ft 0kts
05-Jan-17 07:47 40.631092 -73.775162 210 20ft 0kts
05-Jan-17 07:48 40.631092 -73.775162 210 20ft 0kts
05-Jan-17 07:49 40.631092 -73.775162 210 20ft 0kts
05-Jan-17 07:50 40.631092 -73.775162 210 20ft 0kts
05-Jan-17 07:51 40.631092 -73.775162 210 20ft 0kts
05-Jan-17 07:52 40.630116 -73.776237 272 20ft 16kts
05-Jan-17 07:53 40.648636 -73.820145 286 1971ft 200kts
05-Jan-17 07:54 40.617538 -73.887955 221 3704ft 261kts
05-Jan-17 07:55 40.552124 -73.923767 161 4983ft 268kts
05-Jan-17 07:56 40.530182 -73.841675 76 4997ft 269kts
05-Jan-17 07:57 40.566547 -73.762932 46 4600ft 234kts
05-Jan-17 07:58 40.607655 -73.705238 46 4005ft 212kts
05-Jan-17 07:59 40.647949 -73.648697 46 4003ft 211kts
05-Jan-17 08:00 40.688107 -73.592392 46 3915ft 209kts
05-Jan-17 08:01 40.727776 -73.536827 46 2401ft 206kts
05-Jan-17 08:02 40.771843 -73.537315 290 2028ft 206kts
05-Jan-17 08:03 40.773315 -73.608025 230 2009ft 205kts
05-Jan-17 08:04 40.732487 -73.660789 221 2001ft 205kts
05-Jan-17 08:05 40.689743 -73.708664 220 1874ft 187kts
05-Jan-17 08:06 40.655090 -73.746284 215 405ft 140kts
05-Jan-17 08:07 40.616203 -73.791321 226 1988ft 236kts
05-Jan-17 08:08 40.567806 -73.858688 227 2002ft 257kts
05-Jan-17 08:09 40.511749 -73.909599 168 2003ft 257kts
05-Jan-17 08:10 40.492409 -73.831833 47 1993ft 262kts
05-Jan-17 08:11 40.558537 -73.798027 15 2002ft 257kts
05-Jan-17 08:12 40.624924 -73.825920 328 1999ft 257kts
05-Jan-17 08:13 40.678711 -73.887138 325 1169ft 253kts
05-Jan-17 08:14 40.727661 -73.953056 310 1001ft 253kts
05-Jan-17 08:15 40.774696 -74.028366 309 3909ft 292kts
05-Jan-17 08:16 40.824932 -74.107178 310 3982ft 248kts
05-Jan-17 08:17 40.834846 -74.174690 220 4015ft 211kts
05-Jan-17 08:18 40.787949 -74.221786 217 4002ft 211kts
05-Jan-17 08:19 40.740925 -74.268608 217 4001ft 211kts
05-Jan-17 08:20 40.693935 -74.315414 217 4002ft 211kts
05-Jan-17 08:21 40.647076 -74.362114 217 4025ft 212kts
05-Jan-17 08:22 40.599392 -74.407784 198 3991ft 212kts
05-Jan-17 08:23 40.560226 -74.362602 117 3011ft 208kts
05-Jan-17 08:24 40.541187 -74.293526 67 2163ft 206kts
05-Jan-17 08:25 40.579784 -74.239822 31 2002ft 205kts
05-Jan-17 08:26 40.622826 -74.209267 26 1273ft 145kts
05-Jan-17 08:27 40.659225 -74.185944 25 524ft 144kts
05-Jan-17 08:28 40.692516 -74.164795 26 19ft 58kts
05-Jan-17 08:29 40.698002 -74.163078 348 19ft 12kts
05-Jan-17 08:30 40.699104 -74.166199 277 19ft 0kts
05-Jan-17 08:31 40.699104 -74.166199 277 19ft 0kts

Navigation Log

Ident Type
Flight plan parsing failed, navigation log unavailable